sensor_id;sensor_type;location;lat;lon;timestamp;temperature;humidity
4556;DHT22;2290;48.674;9.018;2022-08-19T00:01:15;20.90;99.90
4556;DHT22;2290;48.674;9.018;2022-08-19T00:03:41;21.00;99.90
4556;DHT22;2290;48.674;9.018;2022-08-19T00:06:06;21.50;99.90
4556;DHT22;2290;48.674;9.018;2022-08-19T00:08:32;20.90;99.90
4556;DHT22;2290;48.674;9.018;2022-08-19T00:10:57;20.90;99.90
4556;DHT22;2290;48.674;9.018;2022-08-19T00:13:23;20.90;99.90
4556;DHT22;2290;48.674;9.018;2022-08-19T00:15:48;20.90;99.90
4556;DHT22;2290;48.674;9.018;2022-08-19T00:18:14;20.70;99.90
4556;DHT22;2290;48.674;9.018;2022-08-19T00:20:39;20.70;99.90
4556;DHT22;2290;48.674;9.018;2022-08-19T00:23:06;20.60;99.90
4556;DHT22;2290;48.674;9.018;2022-08-19T00:25:32;20.60;99.90
4556;DHT22;2290;48.674;9.018;2022-08-19T00:27:58;20.70;99.90
4556;DHT22;2290;48.674;9.018;2022-08-19T00:30:25;20.70;99.90
4556;DHT22;2290;48.674;9.018;2022-08-19T00:32:53;21.00;99.90
4556;DHT22;2290;48.674;9.018;2022-08-19T00:35:23;20.70;99.90
4556;DHT22;2290;48.674;9.018;2022-08-19T00:37:49;20.80;99.90
4556;DHT22;2290;48.674;9.018;2022-08-19T00:40:16;20.70;99.90
4556;DHT22;2290;48.674;9.018;2022-08-19T00:42:42;20.70;99.90
4556;DHT22;2290;48.674;9.018;2022-08-19T00:45:12;21.10;99.90
4556;DHT22;2290;48.674;9.018;2022-08-19T00:47:39;20.60;99.90
4556;DHT22;2290;48.674;9.018;2022-08-19T00:50:05;20.60;99.90
4556;DHT22;2290;48.674;9.018;2022-08-19T00:52:35;20.60;99.90
4556;DHT22;2290;48.674;9.018;2022-08-19T00:55:05;20.60;99.90
4556;DHT22;2290;48.674;9.018;2022-08-19T00:57:38;20.60;99.90
4556;DHT22;2290;48.674;9.018;2022-08-19T01:00:09;20.60;99.90
4556;DHT22;2290;48.674;9.018;2022-08-19T01:02:36;20.60;99.90
4556;DHT22;2290;48.674;9.018;2022-08-19T01:05:05;20.60;99.90
4556;DHT22;2290;48.674;9.018;2022-08-19T01:07:33;20.60;99.90
4556;DHT22;2290;48.674;9.018;2022-08-19T01:09:59;20.50;99.90
4556;DHT22;2290;48.674;9.018;2022-08-19T01:12:25;20.70;99.90
4556;DHT22;2290;48.674;9.018;2022-08-19T01:14:51;20.50;99.90
4556;DHT22;2290;48.674;9.018;2022-08-19T01:17:17;20.50;99.90
4556;DHT22;2290;48.674;9.018;2022-08-19T01:19:45;20.50;99.90
4556;DHT22;2290;48.674;9.018;2022-08-19T01:22:39;20.40;99.90
4556;DHT22;2290;48.674;9.018;2022-08-19T01:25:07;20.50;99.90
4556;DHT22;2290;48.674;9.018;2022-08-19T01:27:40;20.50;99.90
4556;DHT22;2290;48.674;9.018;2022-08-19T01:30:07;20.50;99.90
4556;DHT22;2290;48.674;9.018;2022-08-19T01:32:33;20.50;99.90
4556;DHT22;2290;48.674;9.018;2022-08-19T01:34:58;20.80;99.90
4556;DHT22;2290;48.674;9.018;2022-08-19T01:37:27;20.60;99.90
4556;DHT22;2290;48.674;9.018;2022-08-19T01:39:52;21.00;99.90
4556;DHT22;2290;48.674;9.018;2022-08-19T01:42:18;20.70;99.90
4556;DHT22;2290;48.674;9.018;2022-08-19T01:44:45;20.40;99.90
4556;DHT22;2290;48.674;9.018;2022-08-19T01:47:11;20.30;99.90
4556;DHT22;2290;48.674;9.018;2022-08-19T01:49:37;20.40;99.90
4556;DHT22;2290;48.674;9.018;2022-08-19T01:52:04;20.80;99.90
4556;DHT22;2290;48.674;9.018;2022-08-19T01:54:30;20.40;99.90
4556;DHT22;2290;48.674;9.018;2022-08-19T01:57:02;20.70;99.90
4556;DHT22;2290;48.674;9.018;2022-08-19T01:59:29;20.30;99.90
4556;DHT22;2290;48.674;9.018;2022-08-19T02:01:55;20.40;99.90
4556;DHT22;2290;48.674;9.018;2022-08-19T02:04:20;20.30;99.90
4556;DHT22;2290;48.674;9.018;2022-08-19T02:06:46;20.20;99.90
4556;DHT22;2290;48.674;9.018;2022-08-19T02:09:13;20.20;99.90
4556;DHT22;2290;48.674;9.018;2022-08-19T02:11:41;20.20;99.90
4556;DHT22;2290;48.674;9.018;2022-08-19T02:14:07;20.20;99.90
4556;DHT22;2290;48.674;9.018;2022-08-19T02:16:34;20.40;99.90
4556;DHT22;2290;48.674;9.018;2022-08-19T02:19:00;20.30;99.90
4556;DHT22;2290;48.674;9.018;2022-08-19T02:21:27;20.30;99.90
4556;DHT22;2290;48.674;9.018;2022-08-19T02:23:52;20.20;99.90
4556;DHT22;2290;48.674;9.018;2022-08-19T02:26:20;20.20;99.90
4556;DHT22;2290;48.674;9.018;2022-08-19T02:28:46;20.20;99.90
4556;DHT22;2290;48.674;9.018;2022-08-19T02:31:16;20.20;99.90
4556;DHT22;2290;48.674;9.018;2022-08-19T02:33:43;20.20;99.90
4556;DHT22;2290;48.674;9.018;2022-08-19T02:36:10;20.20;99.90
4556;DHT22;2290;48.674;9.018;2022-08-19T02:38:35;20.20;99.90
4556;DHT22;2290;48.674;9.018;2022-08-19T02:41:14;20.20;99.90
4556;DHT22;2290;48.674;9.018;2022-08-19T02:43:41;20.20;99.90
4556;DHT22;2290;48.674;9.018;2022-08-19T02:46:20;20.20;99.90
4556;DHT22;2290;48.674;9.018;2022-08-19T02:48:51;20.10;99.90
4556;DHT22;2290;48.674;9.018;2022-08-19T02:51:22;20.20;99.90
4556;DHT22;2290;48.674;9.018;2022-08-19T02:53:48;20.10;99.90
4556;DHT22;2290;48.674;9.018;2022-08-19T02:56:14;20.20;99.90
4556;DHT22;2290;48.674;9.018;2022-08-19T02:58:40;20.00;99.90
4556;DHT22;2290;48.674;9.018;2022-08-19T03:01:06;20.10;99.90
4556;DHT22;2290;48.674;9.018;2022-08-19T03:03:32;20.10;99.90
4556;DHT22;2290;48.674;9.018;2022-08-19T03:06:10;20.20;99.90
4556;DHT22;2290;48.674;9.018;2022-08-19T03:08:37;20.10;99.90
4556;DHT22;2290;48.674;9.018;2022-08-19T03:11:02;20.00;99.90
4556;DHT22;2290;48.674;9.018;2022-08-19T03:13:28;19.90;99.90
4556;DHT22;2290;48.674;9.018;2022-08-19T03:15:54;20.00;99.90
4556;DHT22;2290;48.674;9.018;2022-08-19T03:18:20;20.00;99.90
4556;DHT22;2290;48.674;9.018;2022-08-19T03:20:48;20.20;99.90
4556;DHT22;2290;48.674;9.018;2022-08-19T03:23:14;20.00;99.90
4556;DHT22;2290;48.674;9.018;2022-08-19T03:25:42;20.00;99.90
4556;DHT22;2290;48.674;9.018;2022-08-19T03:28:12;20.00;99.90
4556;DHT22;2290;48.674;9.018;2022-08-19T03:30:39;20.00;99.90
4556;DHT22;2290;48.674;9.018;2022-08-19T03:33:07;20.10;99.90
4556;DHT22;2290;48.674;9.018;2022-08-19T03:35:33;20.00;99.90
4556;DHT22;2290;48.674;9.018;2022-08-19T03:38:02;19.90;99.90
4556;DHT22;2290;48.674;9.018;2022-08-19T03:40:28;20.00;99.90
4556;DHT22;2290;48.674;9.018;2022-08-19T03:42:56;19.90;99.90
4556;DHT22;2290;48.674;9.018;2022-08-19T03:45:22;20.00;99.90
4556;DHT22;2290;48.674;9.018;2022-08-19T03:47:47;19.90;99.90
4556;DHT22;2290;48.674;9.018;2022-08-19T03:50:14;19.90;99.90
4556;DHT22;2290;48.674;9.018;2022-08-19T03:52:39;19.90;99.90
4556;DHT22;2290;48.674;9.018;2022-08-19T03:55:06;19.90;99.90
4556;DHT22;2290;48.674;9.018;2022-08-19T03:57:33;19.80;99.90
4556;DHT22;2290;48.674;9.018;2022-08-19T04:00:00;19.80;99.90
4556;DHT22;2290;48.674;9.018;2022-08-19T04:02:25;19.90;99.90
4556;DHT22;2290;48.674;9.018;2022-08-19T04:04:53;19.80;99.90
4556;DHT22;2290;48.674;9.018;2022-08-19T04:07:19;19.90;99.90
4556;DHT22;2290;48.674;9.018;2022-08-19T04:09:47;19.90;99.90
4556;DHT22;2290;48.674;9.018;2022-08-19T04:12:12;19.90;99.90
4556;DHT22;2290;48.674;9.018;2022-08-19T04:14:38;20.90;99.90
4556;DHT22;2290;48.674;9.018;2022-08-19T04:17:05;19.70;99.90
4556;DHT22;2290;48.674;9.018;2022-08-19T04:19:32;20.20;99.90
4556;DHT22;2290;48.674;9.018;2022-08-19T04:21:58;19.80;99.90
4556;DHT22;2290;48.674;9.018;2022-08-19T04:24:24;20.30;99.90
4556;DHT22;2290;48.674;9.018;2022-08-19T04:26:50;19.80;99.90
4556;DHT22;2290;48.674;9.018;2022-08-19T04:29:21;19.90;99.90
4556;DHT22;2290;48.674;9.018;2022-08-19T04:31:47;19.70;99.90
4556;DHT22;2290;48.674;9.018;2022-08-19T04:34:15;19.70;99.90
4556;DHT22;2290;48.674;9.018;2022-08-19T04:36:45;19.70;99.90
4556;DHT22;2290;48.674;9.018;2022-08-19T04:39:14;19.70;99.90
4556;DHT22;2290;48.674;9.018;2022-08-19T04:41:41;19.80;99.90
4556;DHT22;2290;48.674;9.018;2022-08-19T04:44:25;19.80;99.90
4556;DHT22;2290;48.674;9.018;2022-08-19T04:46:51;19.80;99.90
4556;DHT22;2290;48.674;9.018;2022-08-19T04:49:19;19.80;99.90
4556;DHT22;2290;48.674;9.018;2022-08-19T04:51:46;19.80;99.90
4556;DHT22;2290;48.674;9.018;2022-08-19T04:54:16;19.70;99.90
4556;DHT22;2290;48.674;9.018;2022-08-19T04:56:43;19.60;99.90
4556;DHT22;2290;48.674;9.018;2022-08-19T04:59:09;19.70;99.90
4556;DHT22;2290;48.674;9.018;2022-08-19T05:01:36;19.70;99.90
4556;DHT22;2290;48.674;9.018;2022-08-19T05:04:04;19.60;99.90
4556;DHT22;2290;48.674;9.018;2022-08-19T05:06:31;19.70;99.90
4556;DHT22;2290;48.674;9.018;2022-08-19T05:09:02;19.60;99.90
4556;DHT22;2290;48.674;9.018;2022-08-19T05:11:30;19.60;99.90
4556;DHT22;2290;48.674;9.018;2022-08-19T05:13:57;19.60;99.90
4556;DHT22;2290;48.674;9.018;2022-08-19T05:16:25;20.30;99.90
4556;DHT22;2290;48.674;9.018;2022-08-19T05:18:50;19.50;99.90
4556;DHT22;2290;48.674;9.018;2022-08-19T05:21:35;19.40;99.90
4556;DHT22;2290;48.674;9.018;2022-08-19T05:24:21;19.60;99.90
4556;DHT22;2290;48.674;9.018;2022-08-19T05:26:48;19.50;99.90
4556;DHT22;2290;48.674;9.018;2022-08-19T05:29:16;19.40;99.90
4556;DHT22;2290;48.674;9.018;2022-08-19T05:31:43;19.40;99.90
4556;DHT22;2290;48.674;9.018;2022-08-19T05:34:09;19.50;99.90
4556;DHT22;2290;48.674;9.018;2022-08-19T05:36:41;19.40;99.90
4556;DHT22;2290;48.674;9.018;2022-08-19T05:39:13;19.40;99.90
4556;DHT22;2290;48.674;9.018;2022-08-19T05:41:43;19.50;99.90
4556;DHT22;2290;48.674;9.018;2022-08-19T05:44:09;19.50;99.90
4556;DHT22;2290;48.674;9.018;2022-08-19T05:46:36;19.50;99.90
4556;DHT22;2290;48.674;9.018;2022-08-19T05:49:06;19.60;99.90
4556;DHT22;2290;48.674;9.018;2022-08-19T05:51:33;19.70;99.90
4556;DHT22;2290;48.674;9.018;2022-08-19T05:54:03;19.70;99.90
4556;DHT22;2290;48.674;9.018;2022-08-19T05:56:30;19.70;99.90
4556;DHT22;2290;48.674;9.018;2022-08-19T05:59:02;19.80;99.90
4556;DHT22;2290;48.674;9.018;2022-08-19T06:01:27;19.80;99.90
4556;DHT22;2290;48.674;9.018;2022-08-19T06:03:53;19.80;99.90
4556;DHT22;2290;48.674;9.018;2022-08-19T06:06:20;19.80;99.90
4556;DHT22;2290;48.674;9.018;2022-08-19T06:08:46;19.80;99.90
4556;DHT22;2290;48.674;9.018;2022-08-19T06:13:42;20.00;99.90
4556;DHT22;2290;48.674;9.018;2022-08-19T06:16:07;19.80;99.90
4556;DHT22;2290;48.674;9.018;2022-08-19T06:18:33;19.80;99.90
4556;DHT22;2290;48.674;9.018;2022-08-19T06:20:59;19.80;99.90
4556;DHT22;2290;48.674;9.018;2022-08-19T06:23:24;19.80;99.90
4556;DHT22;2290;48.674;9.018;2022-08-19T06:25:51;19.80;99.90
4556;DHT22;2290;48.674;9.018;2022-08-19T06:28:16;19.90;99.90
4556;DHT22;2290;48.674;9.018;2022-08-19T06:30:42;19.90;99.90
4556;DHT22;2290;48.674;9.018;2022-08-19T06:33:07;19.90;99.90
4556;DHT22;2290;48.674;9.018;2022-08-19T06:35:39;20.00;99.90
4556;DHT22;2290;48.674;9.018;2022-08-19T06:38:05;20.00;99.90
4556;DHT22;2290;48.674;9.018;2022-08-19T06:40:30;19.90;99.90
4556;DHT22;2290;48.674;9.018;2022-08-19T06:42:57;19.90;99.90
4556;DHT22;2290;48.674;9.018;2022-08-19T06:45:25;20.00;99.90
4556;DHT22;2290;48.674;9.018;2022-08-19T06:47:52;20.00;99.90
4556;DHT22;2290;48.674;9.018;2022-08-19T06:50:19;19.90;99.90
4556;DHT22;2290;48.674;9.018;2022-08-19T06:52:45;19.90;99.90
4556;DHT22;2290;48.674;9.018;2022-08-19T06:55:12;19.90;99.90
4556;DHT22;2290;48.674;9.018;2022-08-19T06:57:37;19.90;99.90
4556;DHT22;2290;48.674;9.018;2022-08-19T07:00:04;20.00;99.90
4556;DHT22;2290;48.674;9.018;2022-08-19T07:02:30;20.00;99.90
4556;DHT22;2290;48.674;9.018;2022-08-19T07:04:56;20.10;99.90
4556;DHT22;2290;48.674;9.018;2022-08-19T07:07:27;20.20;99.90
4556;DHT22;2290;48.674;9.018;2022-08-19T07:09:53;20.10;99.90
4556;DHT22;2290;48.674;9.018;2022-08-19T07:12:19;20.10;99.90
4556;DHT22;2290;48.674;9.018;2022-08-19T07:14:44;20.10;99.90
4556;DHT22;2290;48.674;9.018;2022-08-19T07:17:13;20.10;99.90
4556;DHT22;2290;48.674;9.018;2022-08-19T07:19:40;20.00;99.90
4556;DHT22;2290;48.674;9.018;2022-08-19T07:22:07;20.10;99.90
4556;DHT22;2290;48.674;9.018;2022-08-19T07:24:34;20.20;99.90
4556;DHT22;2290;48.674;9.018;2022-08-19T07:27:01;20.20;99.90
4556;DHT22;2290;48.674;9.018;2022-08-19T07:29:30;20.30;99.90
4556;DHT22;2290;48.674;9.018;2022-08-19T07:31:56;20.30;99.90
4556;DHT22;2290;48.674;9.018;2022-08-19T07:34:24;20.30;99.90
4556;DHT22;2290;48.674;9.018;2022-08-19T07:36:50;20.30;99.90
4556;DHT22;2290;48.674;9.018;2022-08-19T07:39:25;20.40;99.90
4556;DHT22;2290;48.674;9.018;2022-08-19T07:41:51;20.50;99.90
4556;DHT22;2290;48.674;9.018;2022-08-19T07:44:17;20.70;99.90
4556;DHT22;2290;48.674;9.018;2022-08-19T07:46:46;20.40;99.90
4556;DHT22;2290;48.674;9.018;2022-08-19T07:49:13;20.40;99.90
4556;DHT22;2290;48.674;9.018;2022-08-19T07:51:47;20.30;99.90
4556;DHT22;2290;48.674;9.018;2022-08-19T07:54:12;20.20;99.90
4556;DHT22;2290;48.674;9.018;2022-08-19T07:56:38;20.10;99.90
4556;DHT22;2290;48.674;9.018;2022-08-19T07:59:04;20.20;99.90
4556;DHT22;2290;48.674;9.018;2022-08-19T08:01:30;20.90;99.90
4556;DHT22;2290;48.674;9.018;2022-08-19T08:03:57;20.20;99.90
4556;DHT22;2290;48.674;9.018;2022-08-19T08:06:41;20.20;99.90
4556;DHT22;2290;48.674;9.018;2022-08-19T08:09:30;20.20;99.90
4556;DHT22;2290;48.674;9.018;2022-08-19T08:11:59;20.10;99.90
4556;DHT22;2290;48.674;9.018;2022-08-19T08:14:31;20.00;99.90
4556;DHT22;2290;48.674;9.018;2022-08-19T08:16:58;20.00;99.90
4556;DHT22;2290;48.674;9.018;2022-08-19T08:19:25;20.00;99.90
4556;DHT22;2290;48.674;9.018;2022-08-19T08:21:53;20.00;99.90
4556;DHT22;2290;48.674;9.018;2022-08-19T08:24:19;20.00;99.90
4556;DHT22;2290;48.674;9.018;2022-08-19T08:26:45;19.90;99.90
4556;DHT22;2290;48.674;9.018;2022-08-19T08:29:11;19.90;99.90
4556;DHT22;2290;48.674;9.018;2022-08-19T08:31:39;19.90;99.90
4556;DHT22;2290;48.674;9.018;2022-08-19T08:34:06;19.90;99.90
4556;DHT22;2290;48.674;9.018;2022-08-19T08:36:31;20.00;99.90
4556;DHT22;2290;48.674;9.018;2022-08-19T08:39:00;20.10;99.90
4556;DHT22;2290;48.674;9.018;2022-08-19T08:42:07;20.00;99.90
4556;DHT22;2290;48.674;9.018;2022-08-19T08:44:53;20.10;99.90
4556;DHT22;2290;48.674;9.018;2022-08-19T08:47:22;20.10;99.90
4556;DHT22;2290;48.674;9.018;2022-08-19T08:49:52;20.10;99.90
4556;DHT22;2290;48.674;9.018;2022-08-19T08:52:31;20.60;99.90
4556;DHT22;2290;48.674;9.018;2022-08-19T08:55:07;20.00;99.90
4556;DHT22;2290;48.674;9.018;2022-08-19T08:57:39;20.10;99.90
4556;DHT22;2290;48.674;9.018;2022-08-19T09:00:16;20.10;99.90
4556;DHT22;2290;48.674;9.018;2022-08-19T09:02:43;20.10;99.90
4556;DHT22;2290;48.674;9.018;2022-08-19T09:05:10;20.20;99.90
4556;DHT22;2290;48.674;9.018;2022-08-19T09:08:02;20.30;99.90
4556;DHT22;2290;48.674;9.018;2022-08-19T09:10:44;20.40;99.90
4556;DHT22;2290;48.674;9.018;2022-08-19T09:15:46;20.50;99.90
4556;DHT22;2290;48.674;9.018;2022-08-19T09:18:13;20.50;99.90
4556;DHT22;2290;48.674;9.018;2022-08-19T09:20:39;20.60;99.90
4556;DHT22;2290;48.674;9.018;2022-08-19T09:23:05;20.70;99.90
4556;DHT22;2290;48.674;9.018;2022-08-19T09:25:30;20.70;99.90
4556;DHT22;2290;48.674;9.018;2022-08-19T09:28:00;20.70;99.90
4556;DHT22;2290;48.674;9.018;2022-08-19T09:30:31;20.90;99.90
4556;DHT22;2290;48.674;9.018;2022-08-19T09:32:58;20.80;99.90
4556;DHT22;2290;48.674;9.018;2022-08-19T09:35:28;20.90;99.90
4556;DHT22;2290;48.674;9.018;2022-08-19T09:37:55;20.90;99.90
4556;DHT22;2290;48.674;9.018;2022-08-19T09:40:22;21.00;99.90
4556;DHT22;2290;48.674;9.018;2022-08-19T09:42:47;20.90;99.90
4556;DHT22;2290;48.674;9.018;2022-08-19T09:45:18;20.80;99.90
4556;DHT22;2290;48.674;9.018;2022-08-19T09:47:45;21.00;99.90
4556;DHT22;2290;48.674;9.018;2022-08-19T09:50:12;20.80;99.90
4556;DHT22;2290;48.674;9.018;2022-08-19T09:52:38;20.90;99.90
4556;DHT22;2290;48.674;9.018;2022-08-19T09:55:05;20.80;99.90
4556;DHT22;2290;48.674;9.018;2022-08-19T09:57:32;20.90;99.90
4556;DHT22;2290;48.674;9.018;2022-08-19T09:59:57;21.30;99.90
4556;DHT22;2290;48.674;9.018;2022-08-19T10:02:23;21.30;99.90
4556;DHT22;2290;48.674;9.018;2022-08-19T10:04:50;21.00;99.90
4556;DHT22;2290;48.674;9.018;2022-08-19T10:07:34;21.00;99.90
4556;DHT22;2290;48.674;9.018;2022-08-19T10:10:02;21.10;99.90
4556;DHT22;2290;48.674;9.018;2022-08-19T10:12:28;21.10;99.90
4556;DHT22;2290;48.674;9.018;2022-08-19T10:14:53;21.10;99.90
4556;DHT22;2290;48.674;9.018;2022-08-19T10:17:19;21.10;99.90
4556;DHT22;2290;48.674;9.018;2022-08-19T10:19:45;21.20;99.90
4556;DHT22;2290;48.674;9.018;2022-08-19T10:22:11;21.10;99.90
4556;DHT22;2290;48.674;9.018;2022-08-19T10:24:39;21.10;99.90
4556;DHT22;2290;48.674;9.018;2022-08-19T10:27:04;21.10;99.90
4556;DHT22;2290;48.674;9.018;2022-08-19T10:29:31;21.10;99.90
4556;DHT22;2290;48.674;9.018;2022-08-19T10:32:05;21.10;99.90
4556;DHT22;2290;48.674;9.018;2022-08-19T10:34:34;21.20;99.90
4556;DHT22;2290;48.674;9.018;2022-08-19T10:37:00;21.20;99.90
4556;DHT22;2290;48.674;9.018;2022-08-19T10:39:26;21.30;99.90
4556;DHT22;2290;48.674;9.018;2022-08-19T10:41:56;21.30;99.90
4556;DHT22;2290;48.674;9.018;2022-08-19T10:44:22;21.40;99.90
4556;DHT22;2290;48.674;9.018;2022-08-19T10:46:50;21.40;99.90
4556;DHT22;2290;48.674;9.018;2022-08-19T10:49:16;21.80;99.90
4556;DHT22;2290;48.674;9.018;2022-08-19T10:51:44;21.40;99.90
4556;DHT22;2290;48.674;9.018;2022-08-19T10:54:28;21.40;99.90
4556;DHT22;2290;48.674;9.018;2022-08-19T10:57:14;21.50;99.90
4556;DHT22;2290;48.674;9.018;2022-08-19T10:59:40;21.50;99.90
4556;DHT22;2290;48.674;9.018;2022-08-19T11:02:08;21.40;99.90
4556;DHT22;2290;48.674;9.018;2022-08-19T11:04:39;21.50;99.90
4556;DHT22;2290;48.674;9.018;2022-08-19T11:07:06;21.50;99.90
4556;DHT22;2290;48.674;9.018;2022-08-19T11:09:41;21.40;99.90
4556;DHT22;2290;48.674;9.018;2022-08-19T11:12:08;21.60;99.90
4556;DHT22;2290;48.674;9.018;2022-08-19T11:14:34;21.70;99.90
4556;DHT22;2290;48.674;9.018;2022-08-19T11:17:03;21.90;99.90
4556;DHT22;2290;48.674;9.018;2022-08-19T11:19:28;21.90;99.90
4556;DHT22;2290;48.674;9.018;2022-08-19T11:21:54;21.90;99.90
4556;DHT22;2290;48.674;9.018;2022-08-19T11:24:22;21.90;99.90
4556;DHT22;2290;48.674;9.018;2022-08-19T11:26:50;22.00;99.90
4556;DHT22;2290;48.674;9.018;2022-08-19T11:29:17;22.00;99.90
4556;DHT22;2290;48.674;9.018;2022-08-19T11:31:45;22.10;99.90
4556;DHT22;2290;48.674;9.018;2022-08-19T11:34:16;22.00;99.90
4556;DHT22;2290;48.674;9.018;2022-08-19T11:36:44;22.00;99.90
4556;DHT22;2290;48.674;9.018;2022-08-19T11:39:12;22.00;99.90
4556;DHT22;2290;48.674;9.018;2022-08-19T11:41:38;22.00;99.90
4556;DHT22;2290;48.674;9.018;2022-08-19T11:44:04;22.00;99.90
4556;DHT22;2290;48.674;9.018;2022-08-19T11:46:30;22.00;99.90
4556;DHT22;2290;48.674;9.018;2022-08-19T11:48:58;22.00;99.90
4556;DHT22;2290;48.674;9.018;2022-08-19T11:51:25;22.00;99.90
4556;DHT22;2290;48.674;9.018;2022-08-19T11:53:52;22.00;99.90
4556;DHT22;2290;48.674;9.018;2022-08-19T11:56:19;22.10;99.90
4556;DHT22;2290;48.674;9.018;2022-08-19T11:58:45;22.20;99.90
4556;DHT22;2290;48.674;9.018;2022-08-19T12:01:13;22.10;99.90
4556;DHT22;2290;48.674;9.018;2022-08-19T12:03:45;22.10;99.90
4556;DHT22;2290;48.674;9.018;2022-08-19T12:06:15;22.10;99.90
4556;DHT22;2290;48.674;9.018;2022-08-19T12:08:42;22.20;99.90
4556;DHT22;2290;48.674;9.018;2022-08-19T12:11:08;22.00;99.90
4556;DHT22;2290;48.674;9.018;2022-08-19T12:13:34;22.20;99.90
4556;DHT22;2290;48.674;9.018;2022-08-19T12:16:00;22.10;99.90
4556;DHT22;2290;48.674;9.018;2022-08-19T12:18:27;22.20;99.90
4556;DHT22;2290;48.674;9.018;2022-08-19T12:20:53;22.20;99.90
4556;DHT22;2290;48.674;9.018;2022-08-19T12:23:20;22.30;99.90
4556;DHT22;2290;48.674;9.018;2022-08-19T12:25:47;22.40;99.90
4556;DHT22;2290;48.674;9.018;2022-08-19T12:28:19;22.30;99.90
4556;DHT22;2290;48.674;9.018;2022-08-19T12:30:46;22.50;99.90
4556;DHT22;2290;48.674;9.018;2022-08-19T12:33:12;22.50;99.90
4556;DHT22;2290;48.674;9.018;2022-08-19T12:35:43;22.70;99.90
4556;DHT22;2290;48.674;9.018;2022-08-19T12:38:10;22.90;99.90
4556;DHT22;2290;48.674;9.018;2022-08-19T12:40:35;23.10;99.90
4556;DHT22;2290;48.674;9.018;2022-08-19T12:43:01;23.20;99.90
4556;DHT22;2290;48.674;9.018;2022-08-19T12:45:27;23.20;99.90
4556;DHT22;2290;48.674;9.018;2022-08-19T12:47:52;23.20;99.90
4556;DHT22;2290;48.674;9.018;2022-08-19T12:50:18;23.20;99.90
4556;DHT22;2290;48.674;9.018;2022-08-19T12:52:44;23.30;99.90
4556;DHT22;2290;48.674;9.018;2022-08-19T12:55:10;23.30;99.90
4556;DHT22;2290;48.674;9.018;2022-08-19T12:57:37;23.30;99.90
4556;DHT22;2290;48.674;9.018;2022-08-19T13:00:10;23.20;99.90
4556;DHT22;2290;48.674;9.018;2022-08-19T13:02:40;23.30;99.90
4556;DHT22;2290;48.674;9.018;2022-08-19T13:05:08;23.30;99.90
4556;DHT22;2290;48.674;9.018;2022-08-19T13:07:37;23.40;99.90
4556;DHT22;2290;48.674;9.018;2022-08-19T13:10:05;23.40;99.90
4556;DHT22;2290;48.674;9.018;2022-08-19T13:12:31;23.50;99.90
4556;DHT22;2290;48.674;9.018;2022-08-19T13:14:56;23.50;99.90
4556;DHT22;2290;48.674;9.018;2022-08-19T13:17:22;23.50;99.90
4556;DHT22;2290;48.674;9.018;2022-08-19T13:19:48;23.50;99.90
4556;DHT22;2290;48.674;9.018;2022-08-19T13:22:14;23.50;99.90
4556;DHT22;2290;48.674;9.018;2022-08-19T13:24:39;23.60;99.90
4556;DHT22;2290;48.674;9.018;2022-08-19T13:27:05;23.60;99.90
4556;DHT22;2290;48.674;9.018;2022-08-19T13:29:32;23.60;99.90
4556;DHT22;2290;48.674;9.018;2022-08-19T13:32:16;23.80;99.90
4556;DHT22;2290;48.674;9.018;2022-08-19T13:35:01;23.80;99.90
4556;DHT22;2290;48.674;9.018;2022-08-19T13:37:26;23.80;99.90
4556;DHT22;2290;48.674;9.018;2022-08-19T13:40:22;23.80;99.90
4556;DHT22;2290;48.674;9.018;2022-08-19T13:42:51;23.90;99.90
4556;DHT22;2290;48.674;9.018;2022-08-19T13:45:21;23.90;99.90
4556;DHT22;2290;48.674;9.018;2022-08-19T13:47:48;24.00;99.90
4556;DHT22;2290;48.674;9.018;2022-08-19T13:50:22;24.00;99.90
4556;DHT22;2290;48.674;9.018;2022-08-19T13:52:48;23.90;99.90
4556;DHT22;2290;48.674;9.018;2022-08-19T13:55:15;23.80;99.90
4556;DHT22;2290;48.674;9.018;2022-08-19T13:57:41;23.80;99.90
4556;DHT22;2290;48.674;9.018;2022-08-19T14:00:13;23.80;99.90
4556;DHT22;2290;48.674;9.018;2022-08-19T14:02:39;24.10;99.90
4556;DHT22;2290;48.674;9.018;2022-08-19T14:05:08;24.10;99.90
4556;DHT22;2290;48.674;9.018;2022-08-19T14:07:34;24.10;99.90
4556;DHT22;2290;48.674;9.018;2022-08-19T14:10:00;23.90;99.90
4556;DHT22;2290;48.674;9.018;2022-08-19T14:12:25;24.10;99.90
4556;DHT22;2290;48.674;9.018;2022-08-19T14:14:51;24.00;99.90
4556;DHT22;2290;48.674;9.018;2022-08-19T14:17:17;23.90;99.90
4556;DHT22;2290;48.674;9.018;2022-08-19T14:19:43;24.00;99.90
4556;DHT22;2290;48.674;9.018;2022-08-19T14:22:09;24.30;99.90
4556;DHT22;2290;48.674;9.018;2022-08-19T14:24:37;24.60;99.90
4556;DHT22;2290;48.674;9.018;2022-08-19T14:27:06;24.80;99.90
4556;DHT22;2290;48.674;9.018;2022-08-19T14:29:32;24.80;99.90
4556;DHT22;2290;48.674;9.018;2022-08-19T14:31:57;24.60;99.90
4556;DHT22;2290;48.674;9.018;2022-08-19T14:34:25;24.50;99.90
4556;DHT22;2290;48.674;9.018;2022-08-19T14:36:51;24.40;99.90
4556;DHT22;2290;48.674;9.018;2022-08-19T14:39:17;24.30;99.90
4556;DHT22;2290;48.674;9.018;2022-08-19T14:41:43;24.00;99.90
4556;DHT22;2290;48.674;9.018;2022-08-19T14:44:08;23.90;99.90
4556;DHT22;2290;48.674;9.018;2022-08-19T14:46:37;23.90;99.90
4556;DHT22;2290;48.674;9.018;2022-08-19T14:49:03;23.80;99.90
4556;DHT22;2290;48.674;9.018;2022-08-19T14:51:30;23.80;99.90
4556;DHT22;2290;48.674;9.018;2022-08-19T14:53:56;23.80;99.90
4556;DHT22;2290;48.674;9.018;2022-08-19T14:56:25;23.80;99.90
4556;DHT22;2290;48.674;9.018;2022-08-19T14:58:51;23.80;99.90
4556;DHT22;2290;48.674;9.018;2022-08-19T15:01:17;23.80;99.90
4556;DHT22;2290;48.674;9.018;2022-08-19T15:03:46;23.90;99.90
4556;DHT22;2290;48.674;9.018;2022-08-19T15:06:13;23.90;99.90
4556;DHT22;2290;48.674;9.018;2022-08-19T15:08:40;23.90;99.90
4556;DHT22;2290;48.674;9.018;2022-08-19T15:11:15;24.10;99.90
4556;DHT22;2290;48.674;9.018;2022-08-19T15:13:43;24.00;99.90
4556;DHT22;2290;48.674;9.018;2022-08-19T15:16:10;24.10;99.90
4556;DHT22;2290;48.674;9.018;2022-08-19T15:18:37;24.10;99.90
4556;DHT22;2290;48.674;9.018;2022-08-19T15:21:03;24.10;99.90
4556;DHT22;2290;48.674;9.018;2022-08-19T15:23:29;24.20;99.90
4556;DHT22;2290;48.674;9.018;2022-08-19T15:25:55;24.30;99.90
4556;DHT22;2290;48.674;9.018;2022-08-19T15:28:22;24.40;99.90
4556;DHT22;2290;48.674;9.018;2022-08-19T15:30:48;24.50;99.90
4556;DHT22;2290;48.674;9.018;2022-08-19T15:33:14;24.50;99.90
4556;DHT22;2290;48.674;9.018;2022-08-19T15:35:42;24.80;99.90
4556;DHT22;2290;48.674;9.018;2022-08-19T15:38:07;25.20;99.90
4556;DHT22;2290;48.674;9.018;2022-08-19T15:40:33;25.60;99.90
4556;DHT22;2290;48.674;9.018;2022-08-19T15:42:59;25.60;99.90
4556;DHT22;2290;48.674;9.018;2022-08-19T15:45:25;25.80;99.90
4556;DHT22;2290;48.674;9.018;2022-08-19T15:48:00;25.60;99.90
4556;DHT22;2290;48.674;9.018;2022-08-19T15:50:27;25.70;99.90
4556;DHT22;2290;48.674;9.018;2022-08-19T15:52:57;25.80;99.90
4556;DHT22;2290;48.674;9.018;2022-08-19T15:55:26;25.90;99.90
4556;DHT22;2290;48.674;9.018;2022-08-19T15:57:52;25.90;99.90
4556;DHT22;2290;48.674;9.018;2022-08-19T16:00:36;26.00;99.90
4556;DHT22;2290;48.674;9.018;2022-08-19T16:03:21;26.20;99.60
4556;DHT22;2290;48.674;9.018;2022-08-19T16:06:05;26.40;99.10
4556;DHT22;2290;48.674;9.018;2022-08-19T16:08:50;26.50;99.40
4556;DHT22;2290;48.674;9.018;2022-08-19T16:11:20;26.50;99.20
4556;DHT22;2290;48.674;9.018;2022-08-19T16:13:50;26.50;98.70